sensor_id;sensor_type;location;lat;lon;timestamp;P1;durP1;ratioP1;P2;durP2;ratioP2
61741;SDS011;47650;49.848;9.620;2024-02-15T00:01:00;5.90;;;3.83;;
61741;SDS011;47650;49.848;9.620;2024-02-15T00:03:29;10.52;;;6.72;;
61741;SDS011;47650;49.848;9.620;2024-02-15T00:05:55;14.05;;;10.05;;
61741;SDS011;47650;49.848;9.620;2024-02-15T00:08:22;17.02;;;11.52;;
61741;SDS011;47650;49.848;9.620;2024-02-15T00:10:47;15.43;;;12.10;;
61741;SDS011;47650;49.848;9.620;2024-02-15T00:13:13;8.35;;;5.43;;
61741;SDS011;47650;49.848;9.620;2024-02-15T00:15:39;8.90;;;7.25;;
61741;SDS011;47650;49.848;9.620;2024-02-15T00:18:04;5.85;;;4.40;;
61741;SDS011;47650;49.848;9.620;2024-02-15T00:20:30;8.35;;;5.97;;
61741;SDS011;47650;49.848;9.620;2024-02-15T00:22:55;9.43;;;5.18;;
61741;SDS011;47650;49.848;9.620;2024-02-15T00:25:21;5.53;;;4.43;;
61741;SDS011;47650;49.848;9.620;2024-02-15T00:27:48;8.90;;;4.05;;
61741;SDS011;47650;49.848;9.620;2024-02-15T00:30:18;7.78;;;4.15;;
61741;SDS011;47650;49.848;9.620;2024-02-15T00:32:43;7.65;;;5.93;;
61741;SDS011;47650;49.848;9.620;2024-02-15T00:35:11;6.63;;;3.55;;
61741;SDS011;47650;49.848;9.620;2024-02-15T00:37:42;9.00;;;6.20;;
61741;SDS011;47650;49.848;9.620;2024-02-15T00:40:13;8.70;;;5.22;;
61741;SDS011;47650;49.848;9.620;2024-02-15T00:42:38;6.50;;;4.85;;
61741;SDS011;47650;49.848;9.620;2024-02-15T00:45:05;6.00;;;4.63;;
61741;SDS011;47650;49.848;9.620;2024-02-15T00:47:32;8.00;;;6.53;;
61741;SDS011;47650;49.848;9.620;2024-02-15T00:49:58;7.15;;;4.78;;
61741;SDS011;47650;49.848;9.620;2024-02-15T00:52:23;9.05;;;4.65;;
61741;SDS011;47650;49.848;9.620;2024-02-15T00:54:48;6.13;;;4.03;;
61741;SDS011;47650;49.848;9.620;2024-02-15T00:57:14;6.40;;;4.35;;
61741;SDS011;47650;49.848;9.620;2024-02-15T00:59:39;6.45;;;4.72;;
61741;SDS011;47650;49.848;9.620;2024-02-15T01:02:05;6.15;;;5.00;;
61741;SDS011;47650;49.848;9.620;2024-02-15T01:04:33;6.53;;;4.68;;
61741;SDS011;47650;49.848;9.620;2024-02-15T01:06:59;7.00;;;4.93;;
61741;SDS011;47650;49.848;9.620;2024-02-15T01:09:25;8.25;;;6.53;;
61741;SDS011;47650;49.848;9.620;2024-02-15T01:11:51;10.48;;;7.43;;
61741;SDS011;47650;49.848;9.620;2024-02-15T01:14:16;9.10;;;8.10;;
61741;SDS011;47650;49.848;9.620;2024-02-15T01:16:43;5.70;;;4.30;;
61741;SDS011;47650;49.848;9.620;2024-02-15T01:19:09;9.70;;;7.13;;
61741;SDS011;47650;49.848;9.620;2024-02-15T01:21:34;14.80;;;10.85;;
61741;SDS011;47650;49.848;9.620;2024-02-15T01:24:01;12.18;;;9.10;;
61741;SDS011;47650;49.848;9.620;2024-02-15T01:26:26;16.88;;;12.38;;
61741;SDS011;47650;49.848;9.620;2024-02-15T01:28:52;13.50;;;10.63;;
61741;SDS011;47650;49.848;9.620;2024-02-15T01:31:19;14.52;;;10.63;;
61741;SDS011;47650;49.848;9.620;2024-02-15T01:33:45;18.42;;;12.95;;
61741;SDS011;47650;49.848;9.620;2024-02-15T01:36:14;19.35;;;13.98;;
61741;SDS011;47650;49.848;9.620;2024-02-15T01:38:41;20.60;;;15.07;;
61741;SDS011;47650;49.848;9.620;2024-02-15T01:41:08;21.27;;;16.52;;
61741;SDS011;47650;49.848;9.620;2024-02-15T01:43:34;16.33;;;12.90;;
61741;SDS011;47650;49.848;9.620;2024-02-15T01:46:07;22.83;;;13.88;;
61741;SDS011;47650;49.848;9.620;2024-02-15T01:51:00;19.75;;;15.40;;
61741;SDS011;47650;49.848;9.620;2024-02-15T01:53:28;16.42;;;13.55;;
61741;SDS011;47650;49.848;9.620;2024-02-15T01:55:55;13.70;;;11.25;;
61741;SDS011;47650;49.848;9.620;2024-02-15T01:58:24;19.55;;;13.80;;
61741;SDS011;47650;49.848;9.620;2024-02-15T02:00:57;15.13;;;11.60;;
61741;SDS011;47650;49.848;9.620;2024-02-15T02:03:26;18.88;;;14.40;;
61741;SDS011;47650;49.848;9.620;2024-02-15T02:05:52;16.08;;;12.75;;
61741;SDS011;47650;49.848;9.620;2024-02-15T02:08:18;23.23;;;15.90;;
61741;SDS011;47650;49.848;9.620;2024-02-15T02:10:44;15.23;;;11.48;;
61741;SDS011;47650;49.848;9.620;2024-02-15T02:13:10;20.90;;;15.10;;
61741;SDS011;47650;49.848;9.620;2024-02-15T02:15:36;18.48;;;14.35;;
61741;SDS011;47650;49.848;9.620;2024-02-15T02:18:03;18.40;;;13.95;;
61741;SDS011;47650;49.848;9.620;2024-02-15T02:20:33;14.82;;;12.52;;
61741;SDS011;47650;49.848;9.620;2024-02-15T02:23:03;20.08;;;16.65;;
61741;SDS011;47650;49.848;9.620;2024-02-15T02:25:35;20.02;;;16.30;;
61741;SDS011;47650;49.848;9.620;2024-02-15T02:28:07;20.05;;;15.93;;
61741;SDS011;47650;49.848;9.620;2024-02-15T02:30:33;26.80;;;18.27;;
61741;SDS011;47650;49.848;9.620;2024-02-15T02:33:00;19.25;;;15.07;;
61741;SDS011;47650;49.848;9.620;2024-02-15T02:35:26;15.23;;;12.07;;
61741;SDS011;47650;49.848;9.620;2024-02-15T02:37:54;16.20;;;13.65;;
61741;SDS011;47650;49.848;9.620;2024-02-15T02:40:20;14.38;;;12.63;;
61741;SDS011;47650;49.848;9.620;2024-02-15T02:42:55;20.15;;;12.73;;
61741;SDS011;47650;49.848;9.620;2024-02-15T02:45:24;20.10;;;15.00;;
61741;SDS011;47650;49.848;9.620;2024-02-15T02:47:50;17.23;;;12.48;;
61741;SDS011;47650;49.848;9.620;2024-02-15T02:50:16;12.05;;;10.60;;
61741;SDS011;47650;49.848;9.620;2024-02-15T02:52:42;20.08;;;13.45;;
61741;SDS011;47650;49.848;9.620;2024-02-15T02:55:09;21.63;;;14.68;;
61741;SDS011;47650;49.848;9.620;2024-02-15T02:57:36;20.00;;;13.35;;
61741;SDS011;47650;49.848;9.620;2024-02-15T03:00:03;17.05;;;11.80;;
61741;SDS011;47650;49.848;9.620;2024-02-15T03:02:42;19.85;;;12.77;;
61741;SDS011;47650;49.848;9.620;2024-02-15T03:05:08;14.68;;;12.00;;
61741;SDS011;47650;49.848;9.620;2024-02-15T03:07:36;13.18;;;11.02;;
61741;SDS011;47650;49.848;9.620;2024-02-15T03:10:03;20.33;;;12.68;;
61741;SDS011;47650;49.848;9.620;2024-02-15T03:12:33;19.75;;;12.90;;
61741;SDS011;47650;49.848;9.620;2024-02-15T03:15:02;24.15;;;15.30;;
61741;SDS011;47650;49.848;9.620;2024-02-15T03:19:58;19.35;;;13.73;;
61741;SDS011;47650;49.848;9.620;2024-02-15T03:22:24;19.13;;;13.82;;
61741;SDS011;47650;49.848;9.620;2024-02-15T03:24:51;19.42;;;13.82;;
61741;SDS011;47650;49.848;9.620;2024-02-15T03:27:18;21.08;;;14.60;;
61741;SDS011;47650;49.848;9.620;2024-02-15T03:29:47;19.98;;;15.18;;
61741;SDS011;47650;49.848;9.620;2024-02-15T03:32:13;27.42;;;18.35;;
61741;SDS011;47650;49.848;9.620;2024-02-15T03:34:38;27.63;;;17.73;;
61741;SDS011;47650;49.848;9.620;2024-02-15T03:37:04;17.45;;;13.82;;
61741;SDS011;47650;49.848;9.620;2024-02-15T03:39:32;20.27;;;15.20;;
61741;SDS011;47650;49.848;9.620;2024-02-15T03:41:58;22.50;;;15.73;;
61741;SDS011;47650;49.848;9.620;2024-02-15T03:44:24;17.35;;;14.40;;
61741;SDS011;47650;49.848;9.620;2024-02-15T03:46:52;19.77;;;14.23;;
61741;SDS011;47650;49.848;9.620;2024-02-15T03:49:21;18.10;;;13.35;;
61741;SDS011;47650;49.848;9.620;2024-02-15T03:51:47;28.33;;;18.58;;
61741;SDS011;47650;49.848;9.620;2024-02-15T03:54:14;24.27;;;15.77;;
61741;SDS011;47650;49.848;9.620;2024-02-15T03:56:48;18.80;;;13.95;;
61741;SDS011;47650;49.848;9.620;2024-02-15T03:59:23;17.30;;;12.73;;
61741;SDS011;47650;49.848;9.620;2024-02-15T04:01:54;26.17;;;17.17;;
61741;SDS011;47650;49.848;9.620;2024-02-15T04:04:22;15.98;;;12.35;;
61741;SDS011;47650;49.848;9.620;2024-02-15T04:06:50;17.13;;;12.98;;
61741;SDS011;47650;49.848;9.620;2024-02-15T04:09:17;22.85;;;15.63;;
61741;SDS011;47650;49.848;9.620;2024-02-15T04:11:44;21.15;;;14.88;;
61741;SDS011;47650;49.848;9.620;2024-02-15T04:14:12;23.15;;;16.10;;
61741;SDS011;47650;49.848;9.620;2024-02-15T04:16:40;30.70;;;19.30;;
61741;SDS011;47650;49.848;9.620;2024-02-15T04:19:05;19.48;;;14.73;;
61741;SDS011;47650;49.848;9.620;2024-02-15T04:21:38;24.55;;;16.35;;
61741;SDS011;47650;49.848;9.620;2024-02-15T04:24:06;25.15;;;16.40;;
61741;SDS011;47650;49.848;9.620;2024-02-15T04:26:32;24.77;;;16.45;;
61741;SDS011;47650;49.848;9.620;2024-02-15T04:28:58;22.55;;;15.75;;
61741;SDS011;47650;49.848;9.620;2024-02-15T04:31:24;22.63;;;16.13;;
61741;SDS011;47650;49.848;9.620;2024-02-15T04:33:53;32.30;;;20.45;;
61741;SDS011;47650;49.848;9.620;2024-02-15T04:36:23;25.08;;;16.45;;
61741;SDS011;47650;49.848;9.620;2024-02-15T04:38:51;25.45;;;16.65;;
61741;SDS011;47650;49.848;9.620;2024-02-15T04:41:18;20.52;;;15.75;;
61741;SDS011;47650;49.848;9.620;2024-02-15T04:43:47;22.73;;;14.75;;
61741;SDS011;47650;49.848;9.620;2024-02-15T04:46:13;27.27;;;18.58;;
61741;SDS011;47650;49.848;9.620;2024-02-15T04:48:39;24.40;;;16.63;;
61741;SDS011;47650;49.848;9.620;2024-02-15T04:51:09;28.40;;;18.02;;
61741;SDS011;47650;49.848;9.620;2024-02-15T04:53:37;15.85;;;12.18;;
61741;SDS011;47650;49.848;9.620;2024-02-15T04:56:05;23.20;;;16.50;;
61741;SDS011;47650;49.848;9.620;2024-02-15T04:58:36;23.90;;;16.55;;
61741;SDS011;47650;49.848;9.620;2024-02-15T05:01:02;17.08;;;12.27;;
61741;SDS011;47650;49.848;9.620;2024-02-15T05:03:31;31.70;;;24.02;;
61741;SDS011;47650;49.848;9.620;2024-02-15T05:06:00;23.92;;;16.95;;
61741;SDS011;47650;49.848;9.620;2024-02-15T05:08:26;28.35;;;17.58;;
61741;SDS011;47650;49.848;9.620;2024-02-15T05:10:51;26.58;;;17.58;;
61741;SDS011;47650;49.848;9.620;2024-02-15T05:13:21;23.73;;;14.77;;
61741;SDS011;47650;49.848;9.620;2024-02-15T05:15:46;24.08;;;15.30;;
61741;SDS011;47650;49.848;9.620;2024-02-15T05:18:12;23.83;;;13.88;;
61741;SDS011;47650;49.848;9.620;2024-02-15T05:20:39;26.92;;;16.40;;
61741;SDS011;47650;49.848;9.620;2024-02-15T05:23:08;22.70;;;14.93;;
61741;SDS011;47650;49.848;9.620;2024-02-15T05:25:33;32.30;;;23.60;;
61741;SDS011;47650;49.848;9.620;2024-02-15T05:28:00;23.20;;;15.38;;
61741;SDS011;47650;49.848;9.620;2024-02-15T05:30:25;22.35;;;13.15;;
61741;SDS011;47650;49.848;9.620;2024-02-15T05:32:51;21.23;;;13.35;;
61741;SDS011;47650;49.848;9.620;2024-02-15T05:35:18;19.73;;;12.27;;
61741;SDS011;47650;49.848;9.620;2024-02-15T05:37:44;20.25;;;13.73;;
61741;SDS011;47650;49.848;9.620;2024-02-15T05:40:12;24.95;;;17.02;;
61741;SDS011;47650;49.848;9.620;2024-02-15T05:42:44;24.58;;;14.98;;
61741;SDS011;47650;49.848;9.620;2024-02-15T05:45:27;19.90;;;13.15;;
61741;SDS011;47650;49.848;9.620;2024-02-15T05:47:59;16.55;;;11.68;;
61741;SDS011;47650;49.848;9.620;2024-02-15T05:50:25;19.13;;;11.43;;
61741;SDS011;47650;49.848;9.620;2024-02-15T05:52:53;19.17;;;11.98;;
61741;SDS011;47650;49.848;9.620;2024-02-15T05:55:20;17.70;;;12.25;;
61741;SDS011;47650;49.848;9.620;2024-02-15T05:57:45;19.95;;;12.82;;
61741;SDS011;47650;49.848;9.620;2024-02-15T06:00:11;19.77;;;12.32;;
61741;SDS011;47650;49.848;9.620;2024-02-15T06:02:37;42.00;;;27.33;;
61741;SDS011;47650;49.848;9.620;2024-02-15T06:05:05;42.63;;;25.75;;
61741;SDS011;47650;49.848;9.620;2024-02-15T06:07:32;23.10;;;17.02;;
61741;SDS011;47650;49.848;9.620;2024-02-15T06:09:58;28.85;;;18.90;;
61741;SDS011;47650;49.848;9.620;2024-02-15T06:12:28;25.73;;;17.77;;
61741;SDS011;47650;49.848;9.620;2024-02-15T06:14:53;23.30;;;17.27;;
61741;SDS011;47650;49.848;9.620;2024-02-15T06:17:19;33.40;;;20.40;;
61741;SDS011;47650;49.848;9.620;2024-02-15T06:19:45;24.00;;;15.95;;
61741;SDS011;47650;49.848;9.620;2024-02-15T06:22:12;36.75;;;20.80;;
61741;SDS011;47650;49.848;9.620;2024-02-15T06:24:37;28.77;;;18.63;;
61741;SDS011;47650;49.848;9.620;2024-02-15T06:27:03;26.65;;;18.52;;
61741;SDS011;47650;49.848;9.620;2024-02-15T06:29:31;32.85;;;21.35;;
61741;SDS011;47650;49.848;9.620;2024-02-15T06:32:15;29.98;;;19.95;;
61741;SDS011;47650;49.848;9.620;2024-02-15T06:34:59;26.88;;;18.67;;
61741;SDS011;47650;49.848;9.620;2024-02-15T06:37:43;23.20;;;17.45;;
61741;SDS011;47650;49.848;9.620;2024-02-15T06:40:27;22.88;;;15.55;;
61741;SDS011;47650;49.848;9.620;2024-02-15T06:42:53;27.10;;;17.95;;
61741;SDS011;47650;49.848;9.620;2024-02-15T06:45:19;36.00;;;22.30;;
61741;SDS011;47650;49.848;9.620;2024-02-15T06:47:46;34.28;;;21.45;;
61741;SDS011;47650;49.848;9.620;2024-02-15T06:50:11;30.40;;;20.33;;
61741;SDS011;47650;49.848;9.620;2024-02-15T06:52:40;28.60;;;18.73;;
61741;SDS011;47650;49.848;9.620;2024-02-15T06:55:07;32.97;;;21.85;;
61741;SDS011;47650;49.848;9.620;2024-02-15T06:57:34;33.50;;;21.90;;
61741;SDS011;47650;49.848;9.620;2024-02-15T07:00:03;43.38;;;25.60;;
61741;SDS011;47650;49.848;9.620;2024-02-15T07:02:32;37.25;;;25.73;;
61741;SDS011;47650;49.848;9.620;2024-02-15T07:04:58;27.75;;;20.10;;
61741;SDS011;47650;49.848;9.620;2024-02-15T07:07:25;38.58;;;25.38;;
61741;SDS011;47650;49.848;9.620;2024-02-15T07:09:51;41.65;;;26.42;;
61741;SDS011;47650;49.848;9.620;2024-02-15T07:12:18;35.63;;;24.23;;
61741;SDS011;47650;49.848;9.620;2024-02-15T07:14:47;41.63;;;24.13;;
61741;SDS011;47650;49.848;9.620;2024-02-15T07:17:13;26.88;;;19.90;;
61741;SDS011;47650;49.848;9.620;2024-02-15T07:19:43;31.15;;;19.98;;
61741;SDS011;47650;49.848;9.620;2024-02-15T07:22:11;29.90;;;21.23;;
61741;SDS011;47650;49.848;9.620;2024-02-15T07:24:36;42.70;;;27.88;;
61741;SDS011;47650;49.848;9.620;2024-02-15T07:27:04;34.88;;;22.77;;
61741;SDS011;47650;49.848;9.620;2024-02-15T07:29:32;37.58;;;25.02;;
61741;SDS011;47650;49.848;9.620;2024-02-15T07:32:02;38.97;;;27.52;;
61741;SDS011;47650;49.848;9.620;2024-02-15T07:34:29;31.30;;;23.08;;
61741;SDS011;47650;49.848;9.620;2024-02-15T07:36:55;39.75;;;25.63;;
61741;SDS011;47650;49.848;9.620;2024-02-15T07:39:20;48.45;;;28.77;;
61741;SDS011;47650;49.848;9.620;2024-02-15T07:41:49;26.60;;;21.13;;
61741;SDS011;47650;49.848;9.620;2024-02-15T07:44:18;27.88;;;19.75;;
61741;SDS011;47650;49.848;9.620;2024-02-15T07:46:46;27.35;;;18.30;;
61741;SDS011;47650;49.848;9.620;2024-02-15T07:49:13;21.40;;;16.60;;
61741;SDS011;47650;49.848;9.620;2024-02-15T07:51:41;35.25;;;24.58;;
61741;SDS011;47650;49.848;9.620;2024-02-15T07:54:08;21.48;;;16.00;;
61741;SDS011;47650;49.848;9.620;2024-02-15T07:56:39;25.65;;;20.20;;
61741;SDS011;47650;49.848;9.620;2024-02-15T07:59:05;27.65;;;17.35;;
61741;SDS011;47650;49.848;9.620;2024-02-15T08:01:32;23.08;;;15.98;;
61741;SDS011;47650;49.848;9.620;2024-02-15T08:03:57;25.77;;;16.65;;
61741;SDS011;47650;49.848;9.620;2024-02-15T08:06:22;19.63;;;14.02;;
61741;SDS011;47650;49.848;9.620;2024-02-15T08:08:54;22.70;;;13.23;;
61741;SDS011;47650;49.848;9.620;2024-02-15T08:11:21;22.38;;;16.60;;
61741;SDS011;47650;49.848;9.620;2024-02-15T08:13:54;21.30;;;17.45;;
61741;SDS011;47650;49.848;9.620;2024-02-15T08:16:20;20.25;;;15.32;;
61741;SDS011;47650;49.848;9.620;2024-02-15T08:18:52;19.43;;;11.83;;
61741;SDS011;47650;49.848;9.620;2024-02-15T08:21:30;14.10;;;10.98;;
61741;SDS011;47650;49.848;9.620;2024-02-15T08:24:04;18.15;;;13.65;;
61741;SDS011;47650;49.848;9.620;2024-02-15T08:26:37;19.15;;;11.75;;
61741;SDS011;47650;49.848;9.620;2024-02-15T08:29:04;14.52;;;10.30;;
61741;SDS011;47650;49.848;9.620;2024-02-15T08:31:37;12.57;;;9.40;;
61741;SDS011;47650;49.848;9.620;2024-02-15T08:34:02;12.63;;;8.10;;
61741;SDS011;47650;49.848;9.620;2024-02-15T08:36:34;11.75;;;7.85;;
61741;SDS011;47650;49.848;9.620;2024-02-15T08:39:00;12.95;;;8.65;;
61741;SDS011;47650;49.848;9.620;2024-02-15T08:41:26;16.55;;;8.57;;
61741;SDS011;47650;49.848;9.620;2024-02-15T08:43:52;14.55;;;9.60;;
61741;SDS011;47650;49.848;9.620;2024-02-15T08:46:22;11.43;;;8.23;;
61741;SDS011;47650;49.848;9.620;2024-02-15T08:48:49;17.42;;;9.05;;
61741;SDS011;47650;49.848;9.620;2024-02-15T08:51:15;16.60;;;9.50;;
61741;SDS011;47650;49.848;9.620;2024-02-15T08:53:43;13.85;;;8.48;;
61741;SDS011;47650;49.848;9.620;2024-02-15T08:56:10;13.25;;;7.88;;
61741;SDS011;47650;49.848;9.620;2024-02-15T08:58:35;13.40;;;6.93;;
61741;SDS011;47650;49.848;9.620;2024-02-15T09:01:04;11.45;;;7.60;;
61741;SDS011;47650;49.848;9.620;2024-02-15T09:03:29;12.27;;;6.60;;
61741;SDS011;47650;49.848;9.620;2024-02-15T09:05:55;9.05;;;6.72;;
61741;SDS011;47650;49.848;9.620;2024-02-15T09:08:20;13.05;;;7.22;;
61741;SDS011;47650;49.848;9.620;2024-02-15T09:10:55;9.57;;;6.45;;
61741;SDS011;47650;49.848;9.620;2024-02-15T09:13:23;10.27;;;6.38;;
61741;SDS011;47650;49.848;9.620;2024-02-15T09:15:48;12.57;;;5.80;;
61741;SDS011;47650;49.848;9.620;2024-02-15T09:18:14;6.93;;;5.55;;
61741;SDS011;47650;49.848;9.620;2024-02-15T09:20:41;12.32;;;6.75;;
61741;SDS011;47650;49.848;9.620;2024-02-15T09:23:10;8.18;;;5.70;;
61741;SDS011;47650;49.848;9.620;2024-02-15T09:25:39;9.40;;;5.57;;
61741;SDS011;47650;49.848;9.620;2024-02-15T09:28:07;7.97;;;6.10;;
61741;SDS011;47650;49.848;9.620;2024-02-15T09:30:35;9.82;;;5.55;;
61741;SDS011;47650;49.848;9.620;2024-02-15T09:33:02;7.13;;;4.80;;
61741;SDS011;47650;49.848;9.620;2024-02-15T09:35:40;7.13;;;5.18;;
61741;SDS011;47650;49.848;9.620;2024-02-15T09:38:05;6.80;;;5.15;;
61741;SDS011;47650;49.848;9.620;2024-02-15T09:40:32;8.80;;;5.25;;
61741;SDS011;47650;49.848;9.620;2024-02-15T09:43:00;9.43;;;5.55;;
61741;SDS011;47650;49.848;9.620;2024-02-15T09:45:26;7.20;;;4.57;;
61741;SDS011;47650;49.848;9.620;2024-02-15T09:47:51;7.43;;;5.05;;
61741;SDS011;47650;49.848;9.620;2024-02-15T09:50:18;8.73;;;4.80;;
61741;SDS011;47650;49.848;9.620;2024-02-15T09:52:51;6.28;;;4.38;;
61741;SDS011;47650;49.848;9.620;2024-02-15T09:55:19;7.25;;;2.90;;
61741;SDS011;47650;49.848;9.620;2024-02-15T09:58:00;6.90;;;3.13;;
61741;SDS011;47650;49.848;9.620;2024-02-15T10:00:25;4.95;;;2.95;;
61741;SDS011;47650;49.848;9.620;2024-02-15T10:03:00;6.00;;;3.25;;
61741;SDS011;47650;49.848;9.620;2024-02-15T10:05:32;7.05;;;2.83;;
61741;SDS011;47650;49.848;9.620;2024-02-15T10:07:57;7.00;;;2.80;;
61741;SDS011;47650;49.848;9.620;2024-02-15T10:10:25;3.63;;;2.65;;
61741;SDS011;47650;49.848;9.620;2024-02-15T10:12:54;3.67;;;2.60;;
61741;SDS011;47650;49.848;9.620;2024-02-15T10:15:33;4.60;;;3.28;;
61741;SDS011;47650;49.848;9.620;2024-02-15T10:18:09;5.90;;;3.33;;
61741;SDS011;47650;49.848;9.620;2024-02-15T10:20:37;5.72;;;3.08;;
61741;SDS011;47650;49.848;9.620;2024-02-15T10:23:12;4.97;;;3.45;;
61741;SDS011;47650;49.848;9.620;2024-02-15T10:25:42;4.28;;;2.92;;
61741;SDS011;47650;49.848;9.620;2024-02-15T10:28:10;4.18;;;2.67;;
61741;SDS011;47650;49.848;9.620;2024-02-15T10:30:37;4.97;;;2.95;;
61741;SDS011;47650;49.848;9.620;2024-02-15T10:33:04;6.70;;;3.10;;
61741;SDS011;47650;49.848;9.620;2024-02-15T10:35:32;5.28;;;2.35;;
61741;SDS011;47650;49.848;9.620;2024-02-15T10:38:11;5.80;;;2.75;;
61741;SDS011;47650;49.848;9.620;2024-02-15T10:40:38;5.13;;;2.38;;
61741;SDS011;47650;49.848;9.620;2024-02-15T10:43:06;3.90;;;2.13;;
61741;SDS011;47650;49.848;9.620;2024-02-15T10:45:34;6.70;;;2.08;;
61741;SDS011;47650;49.848;9.620;2024-02-15T10:48:12;5.40;;;2.95;;
61741;SDS011;47650;49.848;9.620;2024-02-15T10:50:41;4.25;;;2.20;;
61741;SDS011;47650;49.848;9.620;2024-02-15T10:53:21;4.18;;;1.85;;
61741;SDS011;47650;49.848;9.620;2024-02-15T10:58:50;6.72;;;2.40;;
61741;SDS011;47650;49.848;9.620;2024-02-15T11:01:23;5.35;;;1.88;;
61741;SDS011;47650;49.848;9.620;2024-02-15T11:03:56;4.43;;;1.88;;
61741;SDS011;47650;49.848;9.620;2024-02-15T11:06:27;6.45;;;2.17;;
61741;SDS011;47650;49.848;9.620;2024-02-15T11:08:55;4.25;;;2.30;;
61741;SDS011;47650;49.848;9.620;2024-02-15T11:11:23;4.47;;;1.92;;
61741;SDS011;47650;49.848;9.620;2024-02-15T11:13:59;4.35;;;2.03;;
61741;SDS011;47650;49.848;9.620;2024-02-15T11:16:51;4.68;;;2.30;;
61741;SDS011;47650;49.848;9.620;2024-02-15T11:22:12;3.83;;;1.60;;
61741;SDS011;47650;49.848;9.620;2024-02-15T11:24:51;4.72;;;1.98;;
61741;SDS011;47650;49.848;9.620;2024-02-15T11:27:27;5.50;;;1.88;;
61741;SDS011;47650;49.848;9.620;2024-02-15T11:29:57;4.18;;;1.80;;
61741;SDS011;47650;49.848;9.620;2024-02-15T11:32:39;3.47;;;1.83;;
61741;SDS011;47650;49.848;9.620;2024-02-15T11:35:21;5.85;;;2.00;;
61741;SDS011;47650;49.848;9.620;2024-02-15T11:40:15;4.18;;;2.03;;
61741;SDS011;47650;49.848;9.620;2024-02-15T11:42:59;4.25;;;1.80;;
61741;SDS011;47650;49.848;9.620;2024-02-15T11:45:31;3.92;;;1.88;;
61741;SDS011;47650;49.848;9.620;2024-02-15T11:48:00;3.88;;;1.58;;
61741;SDS011;47650;49.848;9.620;2024-02-15T11:50:28;3.25;;;1.90;;
61741;SDS011;47650;49.848;9.620;2024-02-15T11:53:04;6.65;;;2.00;;
61741;SDS011;47650;49.848;9.620;2024-02-15T11:55:40;4.05;;;2.05;;
61741;SDS011;47650;49.848;9.620;2024-02-15T11:58:07;3.78;;;1.80;;
61741;SDS011;47650;49.848;9.620;2024-02-15T12:00:36;3.50;;;1.55;;
61741;SDS011;47650;49.848;9.620;2024-02-15T12:03:21;2.83;;;1.50;;
61741;SDS011;47650;49.848;9.620;2024-02-15T12:06:05;4.25;;;1.60;;
61741;SDS011;47650;49.848;9.620;2024-02-15T12:08:51;5.43;;;1.70;;
61741;SDS011;47650;49.848;9.620;2024-02-15T12:11:36;5.60;;;1.58;;
61741;SDS011;47650;49.848;9.620;2024-02-15T12:14:20;2.83;;;1.60;;
61741;SDS011;47650;49.848;9.620;2024-02-15T12:17:07;4.70;;;1.70;;
61741;SDS011;47650;49.848;9.620;2024-02-15T12:19:55;4.38;;;1.58;;
61741;SDS011;47650;49.848;9.620;2024-02-15T12:22:25;4.63;;;1.30;;
61741;SDS011;47650;49.848;9.620;2024-02-15T12:24:57;3.25;;;1.70;;
61741;SDS011;47650;49.848;9.620;2024-02-15T12:27:26;3.33;;;1.55;;
61741;SDS011;47650;49.848;9.620;2024-02-15T12:29:58;7.28;;;2.05;;
61741;SDS011;47650;49.848;9.620;2024-02-15T12:32:24;4.32;;;1.63;;
61741;SDS011;47650;49.848;9.620;2024-02-15T12:34:53;3.10;;;1.50;;
61741;SDS011;47650;49.848;9.620;2024-02-15T12:37:19;4.38;;;1.90;;
61741;SDS011;47650;49.848;9.620;2024-02-15T12:39:51;2.38;;;1.48;;
61741;SDS011;47650;49.848;9.620;2024-02-15T12:42:17;2.78;;;1.55;;
61741;SDS011;47650;49.848;9.620;2024-02-15T12:44:43;3.80;;;1.60;;
61741;SDS011;47650;49.848;9.620;2024-02-15T12:47:21;3.58;;;1.70;;
61741;SDS011;47650;49.848;9.620;2024-02-15T12:49:47;3.25;;;1.88;;
61741;SDS011;47650;49.848;9.620;2024-02-15T12:52:35;2.80;;;1.40;;
61741;SDS011;47650;49.848;9.620;2024-02-15T12:55:11;3.13;;;1.60;;
61741;SDS011;47650;49.848;9.620;2024-02-15T12:57:39;4.15;;;1.52;;
61741;SDS011;47650;49.848;9.620;2024-02-15T13:00:06;3.72;;;1.27;;
61741;SDS011;47650;49.848;9.620;2024-02-15T13:02:39;4.60;;;1.30;;
61741;SDS011;47650;49.848;9.620;2024-02-15T13:05:07;4.32;;;1.50;;
61741;SDS011;47650;49.848;9.620;2024-02-15T13:07:38;3.55;;;1.40;;
61741;SDS011;47650;49.848;9.620;2024-02-15T13:10:04;4.53;;;1.40;;
61741;SDS011;47650;49.848;9.620;2024-02-15T13:12:32;2.08;;;0.90;;
61741;SDS011;47650;49.848;9.620;2024-02-15T13:15:02;2.20;;;1.30;;
61741;SDS011;47650;49.848;9.620;2024-02-15T13:17:32;3.75;;;1.10;;
61741;SDS011;47650;49.848;9.620;2024-02-15T13:20:01;4.55;;;1.88;;
61741;SDS011;47650;49.848;9.620;2024-02-15T13:22:35;3.40;;;1.30;;
61741;SDS011;47650;49.848;9.620;2024-02-15T13:25:01;5.20;;;1.40;;
61741;SDS011;47650;49.848;9.620;2024-02-15T13:27:34;2.83;;;1.17;;
61741;SDS011;47650;49.848;9.620;2024-02-15T13:30:22;2.83;;;1.45;;
61741;SDS011;47650;49.848;9.620;2024-02-15T13:32:54;2.70;;;1.15;;
61741;SDS011;47650;49.848;9.620;2024-02-15T13:35:20;4.30;;;1.30;;
61741;SDS011;47650;49.848;9.620;2024-02-15T13:37:49;5.47;;;1.38;;
61741;SDS011;47650;49.848;9.620;2024-02-15T13:40:16;3.28;;;1.35;;
61741;SDS011;47650;49.848;9.620;2024-02-15T13:42:44;3.80;;;1.52;;
61741;SDS011;47650;49.848;9.620;2024-02-15T13:45:14;4.60;;;1.17;;
61741;SDS011;47650;49.848;9.620;2024-02-15T13:47:45;3.75;;;1.42;;
61741;SDS011;47650;49.848;9.620;2024-02-15T13:50:12;6.30;;;1.40;;
61741;SDS011;47650;49.848;9.620;2024-02-15T13:52:41;3.63;;;1.17;;
61741;SDS011;47650;49.848;9.620;2024-02-15T13:55:08;2.42;;;1.10;;
61741;SDS011;47650;49.848;9.620;2024-02-15T13:57:38;2.60;;;1.10;;
61741;SDS011;47650;49.848;9.620;2024-02-15T14:00:10;2.92;;;1.30;;
61741;SDS011;47650;49.848;9.620;2024-02-15T14:02:51;7.63;;;5.03;;
61741;SDS011;47650;49.848;9.620;2024-02-15T14:05:26;6.45;;;2.20;;
61741;SDS011;47650;49.848;9.620;2024-02-15T14:07:56;3.67;;;1.02;;
61741;SDS011;47650;49.848;9.620;2024-02-15T14:10:23;2.70;;;1.13;;
61741;SDS011;47650;49.848;9.620;2024-02-15T14:12:50;4.60;;;1.65;;
61741;SDS011;47650;49.848;9.620;2024-02-15T14:15:36;3.78;;;1.10;;
61741;SDS011;47650;49.848;9.620;2024-02-15T14:18:06;3.75;;;1.20;;
61741;SDS011;47650;49.848;9.620;2024-02-15T14:20:32;4.55;;;1.70;;
61741;SDS011;47650;49.848;9.620;2024-02-15T14:22:57;4.38;;;2.38;;
61741;SDS011;47650;49.848;9.620;2024-02-15T14:25:31;4.13;;;1.67;;
61741;SDS011;47650;49.848;9.620;2024-02-15T14:28:09;2.42;;;1.08;;
61741;SDS011;47650;49.848;9.620;2024-02-15T14:30:39;3.95;;;1.40;;
61741;SDS011;47650;49.848;9.620;2024-02-15T14:33:23;1.88;;;1.20;;
61741;SDS011;47650;49.848;9.620;2024-02-15T14:35:52;4.20;;;1.30;;
61741;SDS011;47650;49.848;9.620;2024-02-15T14:38:23;3.95;;;1.38;;
61741;SDS011;47650;49.848;9.620;2024-02-15T14:40:51;2.63;;;1.17;;
61741;SDS011;47650;49.848;9.620;2024-02-15T14:43:25;4.80;;;1.40;;
61741;SDS011;47650;49.848;9.620;2024-02-15T14:45:53;4.30;;;1.30;;
61741;SDS011;47650;49.848;9.620;2024-02-15T14:48:24;3.60;;;1.30;;
61741;SDS011;47650;49.848;9.620;2024-02-15T14:50:51;1.77;;;1.10;;
61741;SDS011;47650;49.848;9.620;2024-02-15T14:53:21;2.90;;;1.27;;
61741;SDS011;47650;49.848;9.620;2024-02-15T14:55:47;4.03;;;1.20;;
61741;SDS011;47650;49.848;9.620;2024-02-15T14:58:15;3.03;;;1.20;;